Time;durP1;ratioP1;P1;durP2;ratioP2;P2;SDS_P1;SDS_P2;PMS_P1;PMS_P2;Temp;Humidity;BMP_temperature;BMP_pressure;BME280_temperature;BME280_humidity;BME280_pressure;Samples;Min_cycle;Max_cycle;Signal;HPM_P1;HPM_P2
2022/05/28 00:00:35;;;;;;;3.08;1.50;;;15.40;99.90;;;;;;5056075;28;20087;-80
2022/05/28 00:03:03;;;;;;;4.25;1.20;;;15.30;99.90;;;;;;5055686;28;20044;-80
2022/05/28 00:05:30;;;;;;;4.18;1.40;;;15.30;99.90;;;;;;5056034;28;20040;-69
2022/05/28 00:07:57;;;;;;;4.30;1.20;;;15.10;99.90;;;;;;5055936;28;20048;-72
2022/05/28 00:10:24;;;;;;;2.97;1.13;;;15.00;99.90;;;;;;5055859;28;20098;-74
2022/05/28 00:12:51;;;;;;;3.17;0.90;;;15.00;99.90;;;;;;5055876;28;20049;-77
2022/05/28 00:15:18;;;;;;;2.80;1.25;;;14.80;99.90;;;;;;5055804;28;20539;-76
2022/05/28 00:17:45;;;;;;;1.77;0.98;;;14.90;99.90;;;;;;5055441;28;20037;-75
2022/05/28 00:20:12;;;;;;;3.95;1.60;;;14.90;99.90;;;;;;5055656;28;20098;-75
2022/05/28 00:22:40;;;;;;;4.05;2.00;;;14.90;99.90;;;;;;5055629;28;20551;-75
2022/05/28 00:25:10;;;;;;;3.25;1.30;;;14.90;99.90;;;;;;5055469;28;20111;-74
2022/05/28 00:27:38;;;;;;;3.42;1.50;;;14.80;99.90;;;;;;5055405;28;20481;-75
2022/05/28 00:30:07;;;;;;;5.15;2.40;;;14.80;99.90;;;;;;5055401;28;20056;-76
2022/05/28 00:32:33;;;;;;;3.40;1.35;;;14.70;99.90;;;;;;5055599;28;20055;-78
2022/05/28 00:35:01;;;;;;;3.40;1.23;;;14.60;99.90;;;;;;5055518;28;20591;-75
2022/05/28 00:37:28;;;;;;;3.05;1.00;;;14.60;99.90;;;;;;5055287;28;20416;-81
2022/05/28 00:39:54;;;;;;;4.05;1.90;;;14.60;99.90;;;;;;5055161;28;20055;-70
2022/05/28 00:42:21;;;;;;;2.92;1.30;;;14.50;99.90;;;;;;5055133;28;20488;-70
2022/05/28 00:44:48;;;;;;;3.42;1.65;;;14.50;99.90;;;;;;5055050;28;20110;-70
2022/05/28 00:47:16;;;;;;;1.70;0.93;;;14.50;99.90;;;;;;5055183;28;20041;-70
2022/05/28 00:49:43;;;;;;;3.33;1.55;;;14.50;99.90;;;;;;5055163;28;20040;-70
2022/05/28 00:52:10;;;;;;;4.20;1.17;;;14.40;99.90;;;;;;5055258;28;20087;-70
2022/05/28 00:54:44;;;;;;;4.65;1.63;;;14.30;99.90;;;;;;5054956;28;20369;-70
2022/05/28 00:57:13;;;;;;;5.03;1.75;;;14.30;99.90;;;;;;5070042;28;20109;-70
2022/05/28 00:59:40;;;;;;;4.15;1.80;;;14.10;99.90;;;;;;5055025;28;20350;-75
2022/05/28 01:02:22;;;;;;;4.88;1.88;;;14.10;99.90;;;;;;5053505;28;20044;-75
2022/05/28 01:05:08;;;;;;;2.63;1.20;;;14.00;99.90;;;;;;5053695;28;20183;-76
2022/05/28 01:07:41;;;;;;;5.90;1.27;;;13.90;99.90;;;;;;5054849;28;20037;-77
2022/05/28 01:10:21;;;;;;;2.63;1.00;;;13.90;99.90;;;;;;5054759;28;20040;-70
2022/05/28 01:13:09;;;;;;;2.10;0.87;;;14.00;99.90;;;;;;5053458;28;20033;-69
2022/05/28 01:15:49;;;;;;;5.97;1.60;;;13.90;99.90;;;;;;5054443;28;20076;-71
2022/05/28 01:18:25;;;;;;;3.38;1.27;;;13.70;99.90;;;;;;5054786;28;20502;-70
2022/05/28 01:20:57;;;;;;;4.80;1.33;;;13.50;99.90;;;;;;5054575;28;20148;-71
2022/05/28 01:23:54;;;;;;;8.70;1.40;;;13.50;99.90;;;;;;5054393;28;20531;-72
2022/05/28 01:26:59;;;;;;;2.72;1.15;;;13.60;99.90;;;;;;5054562;28;20037;-72
2022/05/28 01:29:32;;;;;;;3.67;1.30;;;13.40;99.90;;;;;;5017396;28;20049;-69
2022/05/28 01:32:00;;;;;;;2.90;1.65;;;13.50;99.90;;;;;;5053026;28;20048;-69
2022/05/28 01:34:30;;;;;;;3.00;1.17;;;13.40;99.90;;;;;;5054089;28;20045;-72
2022/05/28 01:36:58;;;;;;;3.50;1.35;;;13.50;99.90;;;;;;5054280;28;20041;-72
2022/05/28 01:39:26;;;;;;;2.15;1.23;;;13.50;99.90;;;;;;5054274;28;20047;-72
2022/05/28 01:41:54;;;;;;;3.58;1.33;;;13.60;99.90;;;;;;5054205;28;20059;-72
2022/05/28 01:44:23;;;;;;;5.35;1.70;;;13.60;99.90;;;;;;5054004;28;20457;-71
2022/05/28 01:46:52;;;;;;;3.58;1.00;;;13.60;99.90;;;;;;5053787;28;20072;-72
2022/05/28 01:49:21;;;;;;;6.88;1.92;;;13.50;99.90;;;;;;5053987;28;20096;-74
2022/05/28 01:52:00;;;;;;;3.28;1.48;;;13.30;99.90;;;;;;5054004;28;20523;-74
2022/05/28 01:54:32;;;;;;;3.50;1.20;;;13.50;99.90;;;;;;5054040;28;20047;-74
2022/05/28 01:57:00;;;;;;;2.85;1.15;;;13.20;99.90;;;;;;5053209;28;20094;-74
2022/05/28 01:59:31;;;;;;;4.40;1.20;;;13.30;99.90;;;;;;5053737;28;20468;-74
2022/05/28 02:02:01;;;;;;;2.50;1.10;;;13.30;99.90;;;;;;5053847;28;20067;-74
2022/05/28 02:04:30;;;;;;;2.28;1.25;;;13.20;99.90;;;;;;5053957;28;20052;-74
2022/05/28 02:06:57;;;;;;;3.90;1.25;;;13.20;99.90;;;;;;5053878;28;20507;-74
2022/05/28 02:09:31;;;;;;;6.60;1.65;;;13.10;99.90;;;;;;5053815;28;20369;-75
2022/05/28 02:12:15;;;;;;;3.42;1.45;;;13.10;99.90;;;;;;5053814;28;20033;-75
2022/05/28 02:14:51;;;;;;;2.22;1.15;;;13.10;99.90;;;;;;5053493;28;20528;-75
2022/05/28 02:17:49;;;;;;;4.45;1.42;;;13.10;99.90;;;;;;5053894;28;20048;-74
2022/05/28 02:20:20;;;;;;;2.28;1.10;;;13.10;99.90;;;;;;5053672;28;20049;-74
2022/05/28 02:23:00;;;;;;;8.52;1.67;;;13.00;99.90;;;;;;5054000;28;20488;-72
2022/05/28 02:25:55;;;;;;;3.10;1.23;;;12.90;99.90;;;;;;5053398;28;20045;-73
2022/05/28 02:28:25;;;;;;;3.67;1.23;;;13.00;99.90;;;;;;5053255;28;20267;-72
2022/05/28 02:31:05;;;;;;;1.92;1.08;;;13.00;99.90;;;;;;5053471;28;20056;-72
2022/05/28 02:33:33;;;;;;;3.45;1.02;;;12.90;99.90;;;;;;5053723;28;20060;-73
2022/05/28 02:36:00;;;;;;;4.20;1.73;;;12.80;99.90;;;;;;5053539;28;20516;-72
2022/05/28 02:38:27;;;;;;;2.85;1.10;;;12.80;99.90;;;;;;5053606;28;20076;-73
2022/05/28 02:40:54;;;;;;;3.47;1.50;;;12.90;99.90;;;;;;5052162;28;20037;-73
2022/05/28 02:43:23;;;;;;;5.60;1.25;;;13.00;99.90;;;;;;5053404;28;20051;-72
2022/05/28 02:45:50;;;;;;;4.60;1.70;;;13.00;99.90;;;;;;5053573;28;20045;-73
2022/05/28 02:48:17;;;;;;;6.78;1.90;;;13.10;99.90;;;;;;5053507;28;20087;-73
2022/05/28 02:50:44;;;;;;;4.40;1.52;;;13.00;99.90;;;;;;5053525;28;20049;-73
2022/05/28 02:53:13;;;;;;;3.95;1.60;;;13.00;99.90;;;;;;5052182;28;20068;-72
2022/05/28 02:55:41;;;;;;;1.95;1.00;;;13.00;99.90;;;;;;5053309;28;20045;-73
2022/05/28 02:58:08;;;;;;;5.75;1.52;;;13.00;99.90;;;;;;5053240;28;20056;-73
2022/05/28 03:00:34;;;;;;;3.42;1.52;;;13.00;99.90;;;;;;5052020;28;20037;-72
2022/05/28 03:03:01;;;;;;;9.05;1.80;;;13.10;99.90;;;;;;5053279;28;20057;-72
2022/05/28 03:05:27;;;;;;;4.50;1.60;;;13.10;99.90;;;;;;5053118;28;20053;-71
2022/05/28 03:07:54;;;;;;;3.67;1.60;;;13.00;99.90;;;;;;5053163;28;20075;-75
2022/05/28 03:10:21;;;;;;;9.45;2.03;;;12.90;99.90;;;;;;5053268;28;20450;-76
2022/05/28 03:12:48;;;;;;;2.55;1.33;;;12.90;99.90;;;;;;5053249;28;20040;-71
2022/05/28 03:15:15;;;;;;;3.70;1.50;;;12.70;99.90;;;;;;5053181;28;20040;-71
2022/05/28 03:17:42;;;;;;;4.32;1.45;;;12.60;99.90;;;;;;5051730;28;20063;-70
2022/05/28 03:20:09;;;;;;;3.33;1.60;;;12.50;99.90;;;;;;5052844;28;20508;-71
2022/05/28 03:22:36;;;;;;;4.97;1.60;;;12.60;99.90;;;;;;5053011;28;20102;-73
2022/05/28 03:25:04;;;;;;;6.10;1.63;;;12.50;99.90;;;;;;5051725;28;20049;-72
2022/05/28 03:27:45;;;;;;;3.40;1.50;;;12.50;99.90;;;;;;5053661;28;20425;-72
2022/05/28 03:30:12;;;;;;;2.95;1.70;;;12.50;99.90;;;;;;5056752;28;20103;-72
2022/05/28 03:32:39;;;;;;;5.22;1.73;;;12.60;99.90;;;;;;5056364;28;20041;-72
2022/05/28 03:35:07;;;;;;;2.53;1.60;;;12.60;99.90;;;;;;5056229;28;20041;-72
2022/05/28 03:37:34;;;;;;;3.28;1.50;;;12.60;99.90;;;;;;5056642;28;20045;-72
2022/05/28 03:40:04;;;;;;;2.95;1.40;;;12.60;99.90;;;;;;5056319;28;20040;-72
2022/05/28 03:42:31;;;;;;;3.70;1.48;;;12.50;99.90;;;;;;5056401;28;20049;-72
2022/05/28 03:44:58;;;;;;;4.30;1.63;;;12.50;99.90;;;;;;5056127;28;20546;-73
2022/05/28 03:47:27;;;;;;;6.60;2.08;;;12.40;99.90;;;;;;5056452;28;20049;-73
2022/05/28 03:49:54;;;;;;;2.78;1.50;;;12.40;99.90;;;;;;5056171;28;20090;-73
2022/05/28 03:52:21;;;;;;;7.13;1.95;;;12.40;99.90;;;;;;5055365;28;20435;-73
2022/05/28 03:54:48;;;;;;;5.10;1.55;;;12.40;99.90;;;;;;5071612;28;20523;-73
2022/05/28 03:57:22;;;;;;;3.35;1.85;;;12.40;99.90;;;;;;5054224;28;20045;-73
2022/05/28 03:59:53;;;;;;;4.18;1.88;;;12.40;99.90;;;;;;5055847;28;20092;-73
2022/05/28 04:02:20;;;;;;;8.80;2.15;;;12.40;99.90;;;;;;5055939;28;20049;-73
2022/05/28 04:04:47;;;;;;;3.92;1.35;;;12.30;99.90;;;;;;5055899;28;20053;-72
2022/05/28 04:07:14;;;;;;;7.03;1.80;;;12.30;99.90;;;;;;5055958;28;20094;-72
2022/05/28 04:09:41;;;;;;;4.22;1.80;;;12.30;99.90;;;;;;5055773;28;20134;-72
2022/05/28 04:12:10;;;;;;;8.00;2.40;;;12.40;99.90;;;;;;5055809;28;20068;-73
2022/05/28 04:14:38;;;;;;;3.08;1.60;;;12.40;99.90;;;;;;5055649;28;20029;-73
2022/05/28 04:17:07;;;;;;;7.90;2.30;;;12.50;99.90;;;;;;5055583;28;20052;-76
2022/05/28 04:19:34;;;;;;;3.15;1.80;;;12.50;99.90;;;;;;5055537;28;20096;-76
2022/05/28 04:22:00;;;;;;;4.47;1.88;;;12.50;99.90;;;;;;5056114;28;20496;-76
2022/05/28 04:24:27;;;;;;;4.30;1.60;;;12.50;99.90;;;;;;5055829;28;20064;-77
2022/05/28 04:26:54;;;;;;;5.03;2.30;;;12.50;99.90;;;;;;5055625;28;20044;-76
2022/05/28 04:29:21;;;;;;;3.63;1.60;;;12.50;99.90;;;;;;5054310;28;20403;-76
2022/05/28 04:31:48;;;;;;;3.45;1.85;;;12.50;99.90;;;;;;5055647;28;20049;-76
2022/05/28 04:34:15;;;;;;;5.43;2.00;;;12.50;99.90;;;;;;5054471;28;20119;-76
2022/05/28 04:36:43;;;;;;;3.30;1.90;;;12.50;99.90;;;;;;5055442;28;20049;-76
2022/05/28 04:39:10;;;;;;;6.97;2.15;;;12.50;99.90;;;;;;5055326;28;20590;-77
2022/05/28 04:41:37;;;;;;;4.82;2.17;;;12.60;99.90;;;;;;5055208;28;20123;-76
2022/05/28 04:44:05;;;;;;;4.72;2.25;;;12.50;99.90;;;;;;5054834;28;20052;-76
2022/05/28 04:46:33;;;;;;;4.22;2.10;;;12.60;99.90;;;;;;5069565;28;20052;-76
2022/05/28 04:49:01;;;;;;;5.07;2.00;;;12.60;99.90;;;;;;5070748;28;20076;-76
2022/05/28 04:51:28;;;;;;;3.78;2.15;;;12.70;99.90;;;;;;5052586;28;20362;-76
2022/05/28 04:53:56;;;;;;;4.03;1.98;;;12.70;99.90;;;;;;5054943;28;20120;-76
2022/05/28 04:56:23;;;;;;;6.30;2.60;;;12.80;99.90;;;;;;5054651;28;20049;-76
2022/05/28 04:58:50;;;;;;;3.63;1.70;;;12.80;99.90;;;;;;5054907;28;20037;-77
2022/05/28 05:01:21;;;;;;;4.78;1.95;;;12.80;99.90;;;;;;5070236;28;20048;-77
2022/05/28 05:03:48;;;;;;;5.10;1.73;;;12.80;99.90;;;;;;5054905;28;20052;-76
2022/05/28 05:06:15;;;;;;;7.95;2.30;;;12.80;99.90;;;;;;5054881;28;20047;-77
2022/05/28 05:08:42;;;;;;;5.05;2.20;;;13.00;99.90;;;;;;5054731;28;20045;-77
2022/05/28 05:11:12;;;;;;;4.60;2.15;;;13.00;99.90;;;;;;5069413;28;20394;-78
2022/05/28 05:13:41;;;;;;;7.97;2.33;;;13.00;99.90;;;;;;5054696;28;20068;-78
2022/05/28 05:16:14;;;;;;;3.78;2.00;;;13.00;99.90;;;;;;5054836;28;20048;-77
2022/05/28 05:18:40;;;;;;;6.45;2.35;;;13.20;99.90;;;;;;5054863;28;20492;-78
2022/05/28 05:21:11;;;;;;;5.75;1.95;;;13.20;99.90;;;;;;5054688;28;20041;-77
2022/05/28 05:23:43;;;;;;;5.13;2.85;;;13.30;99.90;;;;;;5054470;28;20040;-77
2022/05/28 05:26:15;;;;;;;7.63;2.20;;;13.30;99.90;;;;;;5054507;28;20055;-77
2022/05/28 05:28:42;;;;;;;6.00;2.10;;;13.30;99.90;;;;;;5054400;28;20065;-78
2022/05/28 05:31:09;;;;;;;4.20;2.20;;;13.30;99.90;;;;;;5054407;28;20179;-77
2022/05/28 05:33:36;;;;;;;4.68;1.95;;;13.40;99.90;;;;;;5054365;28;20393;-77
2022/05/28 05:36:04;;;;;;;3.33;1.88;;;13.50;99.90;;;;;;5054384;28;20041;-77
2022/05/28 05:38:31;;;;;;;5.18;2.20;;;13.60;99.90;;;;;;5054333;28;20072;-77
2022/05/28 05:40:58;;;;;;;4.88;2.38;;;13.70;99.90;;;;;;5053982;28;20388;-77
2022/05/28 05:43:25;;;;;;;2.42;1.73;;;13.70;99.90;;;;;;5054129;28;20408;-78
2022/05/28 05:45:53;;;;;;;6.20;2.60;;;13.80;99.90;;;;;;5054068;28;20623;-78
2022/05/28 05:48:20;;;;;;;7.10;2.80;;;13.90;99.90;;;;;;5053960;28;20125;-77
2022/05/28 05:50:47;;;;;;;6.90;2.70;;;14.10;99.90;;;;;;5052344;28;20120;-77
2022/05/28 05:53:15;;;;;;;4.45;2.10;;;14.30;99.90;;;;;;5069489;28;20037;-77
2022/05/28 05:55:43;;;;;;;6.95;2.70;;;14.20;99.90;;;;;;5054127;28;20140;-77
2022/05/28 05:58:13;;;;;;;5.60;2.80;;;14.10;99.90;;;;;;5069190;28;20048;-77
2022/05/28 06:00:40;;;;;;;6.10;2.53;;;14.00;99.90;;;;;;5053993;28;20128;-77
2022/05/28 06:03:07;;;;;;;5.70;2.25;;;14.00;99.90;;;;;;5052137;28;20407;-77
2022/05/28 06:05:35;;;;;;;5.05;2.20;;;14.00;99.90;;;;;;5053956;28;20052;-77
2022/05/28 06:08:01;;;;;;;6.80;2.65;;;14.30;99.90;;;;;;5069432;28;20084;-77
2022/05/28 06:10:28;;;;;;;5.10;1.80;;;14.20;99.90;;;;;;5053949;28;20128;-78
2022/05/28 06:12:55;;;;;;;4.47;2.45;;;14.10;99.90;;;;;;5053878;28;20045;-77
2022/05/28 06:15:22;;;;;;;2.65;2.00;;;14.10;99.90;;;;;;5053809;28;20041;-77
2022/05/28 06:17:49;;;;;;;4.05;2.13;;;14.10;99.90;;;;;;5053789;28;20093;-77
2022/05/28 06:20:16;;;;;;;4.43;2.35;;;14.20;99.90;;;;;;5053961;28;20041;-77
2022/05/28 06:22:42;;;;;;;7.22;2.70;;;14.10;99.90;;;;;;5053670;28;20480;-77
2022/05/28 06:25:11;;;;;;;7.55;2.38;;;14.00;99.90;;;;;;5053302;28;20413;-76
2022/05/28 06:27:38;;;;;;;4.97;2.30;;;14.20;99.90;;;;;;5053823;28;20045;-77
2022/05/28 06:30:06;;;;;;;5.47;2.17;;;14.40;99.90;;;;;;5053600;28;20041;-77
2022/05/28 06:32:33;;;;;;;4.93;2.15;;;14.40;99.90;;;;;;5053713;28;20523;-77
2022/05/28 06:35:01;;;;;;;3.30;2.10;;;14.30;99.90;;;;;;5053580;28;20033;-77
2022/05/28 06:37:29;;;;;;;4.85;1.80;;;14.40;99.90;;;;;;5053540;28;20045;-77
2022/05/28 06:39:56;;;;;;;3.33;1.83;;;14.30;99.90;;;;;;5053719;28;20048;-77
2022/05/28 06:42:22;;;;;;;4.03;1.85;;;14.50;99.90;;;;;;5053476;28;20559;-77
2022/05/28 06:44:55;;;;;;;3.13;1.98;;;14.50;99.90;;;;;;5052858;28;20053;-77
2022/05/28 06:47:22;;;;;;;5.47;2.75;;;14.60;99.90;;;;;;5053581;28;20037;-77
2022/05/28 06:52:35;;;;;;;7.07;1.92;;;15.00;99.90;;;;;;5053537;28;20122;-77
2022/05/28 06:55:03;;;;;;;4.97;1.90;;;14.90;99.90;;;;;;5053255;28;20053;-77
2022/05/28 06:57:31;;;;;;;4.72;1.92;;;15.10;99.90;;;;;;5053564;28;20373;-76
2022/05/28 07:00:01;;;;;;;2.80;1.60;;;15.40;99.90;;;;;;5053588;28;20488;-77
2022/05/28 07:02:28;;;;;;;6.17;1.80;;;15.50;99.90;;;;;;5053454;28;20130;-77
2022/05/28 07:04:55;;;;;;;2.55;1.50;;;15.20;99.90;;;;;;5056929;28;20848;-77
2022/05/28 07:07:22;;;;;;;5.78;2.25;;;15.10;99.90;;;;;;5055944;28;20049;-77
2022/05/28 07:09:49;;;;;;;3.20;1.92;;;15.30;99.90;;;;;;5057030;28;20127;-76
2022/05/28 07:12:16;;;;;;;4.55;2.03;;;15.50;99.90;;;;;;5057020;28;20040;-76
2022/05/28 07:14:42;;;;;;;3.35;1.70;;;15.60;99.90;;;;;;5056878;28;20041;-76
2022/05/28 07:17:14;;;;;;;2.80;1.88;;;15.80;99.90;;;;;;5056532;28;20083;-78
2022/05/28 07:19:41;;;;;;;4.25;2.15;;;15.90;99.90;;;;;;5056974;28;20041;-78
2022/05/28 07:22:08;;;;;;;7.28;1.67;;;16.00;99.90;;;;;;5056911;28;20037;-78
2022/05/28 07:24:35;;;;;;;3.42;1.80;;;16.50;99.90;;;;;;5056850;28;20183;-78
2022/05/28 07:27:07;;;;;;;8.60;1.75;;;16.10;99.90;;;;;;5056526;28;20029;-79
2022/05/28 07:29:34;;;;;;;3.22;1.70;;;16.40;99.90;;;;;;5056618;28;20481;-76
2022/05/28 07:32:03;;;;;;;2.88;1.80;;;16.30;99.90;;;;;;5056938;28;20064;-77
2022/05/28 07:34:30;;;;;;;4.32;1.70;;;16.30;99.90;;;;;;5056585;28;20056;-77
2022/05/28 07:36:56;;;;;;;3.70;1.85;;;16.30;99.90;;;;;;5056405;28;20029;-77
2022/05/28 07:39:23;;;;;;;2.97;1.63;;;;;;;;;;5055096;28;20037;-78
2022/05/28 07:41:52;;;;;;;3.10;1.63;;;16.90;99.90;;;;;;5056295;28;20045;-76
2022/05/28 07:44:20;;;;;;;4.90;2.17;;;16.90;99.90;;;;;;5056233;28;20130;-76
2022/05/28 07:46:49;;;;;;;3.42;1.58;;;17.00;99.90;;;;;;5056108;28;20041;-78
2022/05/28 07:49:16;;;;;;;3.55;1.73;;;17.00;99.90;;;;;;5055793;28;20056;-77
2022/05/28 07:51:43;;;;;;;3.78;1.63;;;16.70;99.90;;;;;;5071458;28;20043;-77
2022/05/28 07:54:10;;;;;;;3.83;2.17;;;16.70;99.90;;;;;;5056108;28;20052;-77
2022/05/28 07:56:36;;;;;;;4.05;1.90;;;16.30;99.90;;;;;;5056066;28;20123;-77
2022/05/28 07:59:04;;;;;;;2.85;1.60;;;16.50;99.90;;;;;;5056263;28;20119;-78
2022/05/28 08:01:32;;;;;;;4.40;2.00;;;17.00;99.90;;;;;;5056217;28;20033;-77
2022/05/28 08:03:59;;;;;;;7.10;1.42;;;16.90;99.90;;;;;;5055679;28;20806;-77
2022/05/28 08:06:28;;;;;;;3.03;1.70;;;16.90;99.90;;;;;;5055899;28;20049;-76
2022/05/28 08:08:56;;;;;;;1.92;1.58;;;17.20;99.90;;;;;;5055808;28;20033;-77
2022/05/28 08:11:25;;;;;;;3.33;1.80;;;17.40;99.90;;;;;;5055826;28;20041;-77
2022/05/28 08:13:53;;;;;;;5.07;1.42;;;17.10;99.90;;;;;;5055266;28;20045;-77
2022/05/28 08:16:21;;;;;;;4.25;1.77;;;17.20;99.90;;;;;;5055539;28;20523;-78
2022/05/28 08:18:48;;;;;;;5.30;1.90;;;17.10;99.90;;;;;;5070352;28;20040;-77
2022/05/28 08:24:01;;;;;;;2.97;1.50;;;16.80;99.90;;;;;;5055352;28;20059;-76
2022/05/28 08:26:29;;;;;;;6.45;2.15;;;17.30;99.90;;;;;;5055560;28;20037;-77
2022/05/28 08:28:56;;;;;;;1.70;1.30;;;17.00;99.90;;;;;;5070955;28;20056;-77
2022/05/28 08:31:26;;;;;;;7.47;1.92;;;17.30;99.90;;;;;;5055525;28;20098;-77
2022/05/28 08:33:53;;;;;;;;;;;17.20;99.90;;;;;;5054484;28;20071;-76
2022/05/28 08:36:21;;;;;;;5.82;2.53;;;17.30;99.90;;;;;;5055338;28;19905;-76
2022/05/28 08:38:48;;;;;;;5.88;1.45;;;16.80;99.90;;;;;;5055255;28;20053;-76
2022/05/28 08:41:23;;;;;;;2.08;1.30;;;17.20;99.90;;;;;;5055173;28;20037;-77
2022/05/28 08:43:57;;;;;;;3.30;1.65;;;17.40;99.90;;;;;;5054897;28;20045;-78
2022/05/28 08:46:28;;;;;;;3.35;1.42;;;17.60;99.90;;;;;;5055150;28;20098;-78
2022/05/28 08:48:56;;;;;;;;;;;18.10;99.90;;;;;;5055678;28;20041;-77
2022/05/28 08:51:52;;;;;;;6.68;1.67;;;17.80;99.90;;;;;;5054953;28;20348;-77
2022/05/28 08:54:26;;;;;;;4.22;1.35;;;18.00;99.90;;;;;;5054831;28;20488;-76
2022/05/28 08:57:07;;;;;;;5.78;1.50;;;17.80;99.90;;;;;;5053512;28;20124;-77
2022/05/28 08:59:46;;;;;;;2.40;1.50;;;18.10;99.90;;;;;;5068974;28;20056;-76
2022/05/28 09:02:38;;;;;;;3.40;1.75;;;17.60;99.90;;;;;;5054667;28;20131;-76
2022/05/28 09:05:15;;;;;;;4.07;1.60;;;17.10;99.90;;;;;;5047447;28;20053;-75
2022/05/28 09:07:46;;;;;;;4.38;1.55;;;16.70;99.90;;;;;;5054905;28;20037;-76
2022/05/28 09:10:14;;;;;;;5.95;1.75;;;17.40;99.90;;;;;;5070124;28;20587;-76
2022/05/28 09:13:16;;;;;;;4.45;1.52;;;17.40;99.90;;;;;;5054619;28;20102;-76
2022/05/28 09:15:46;;;;;;;5.78;2.20;;;17.80;99.90;;;;;;5038759;28;20366;-77
2022/05/28 09:18:13;;;;;;;8.02;1.70;;;17.90;99.90;;;;;;5052999;28;20040;-76
2022/05/28 09:20:45;;;;;;;6.75;1.88;;;17.50;99.90;;;;;;5054609;28;20106;-79
2022/05/28 09:23:13;;;;;;;5.85;1.88;;;17.50;99.90;;;;;;5054484;28;20044;-77
2022/05/28 09:25:45;;;;;;;4.40;1.75;;;17.70;99.90;;;;;;5053733;28;20454;-77
2022/05/28 09:29:15;;;;;;;2.83;1.58;;;18.10;99.90;;;;;;5054338;28;20033;-75
2022/05/28 09:32:00;;;;;;;6.72;1.80;;;17.90;99.60;;;;;;5008003;28;20441;-75
2022/05/28 09:34:40;;;;;;;7.38;1.90;;;18.10;99.90;;;;;;5053413;28;20051;-76
2022/05/28 09:37:22;;;;;;;4.43;1.38;;;18.30;99.70;;;;;;5069673;28;20527;-75
2022/05/28 09:39:59;;;;;;;2.80;1.40;;;;;;;;;;5054304;28;20037;-75
2022/05/28 09:42:44;;;;;;;3.13;1.77;;;;;;;;;;5054329;28;20041;-76
2022/05/28 09:45:20;;;;;;;4.32;1.75;;;;;;;;;;5054175;28;20059;-76
2022/05/28 09:47:52;;;;;;;5.20;1.50;;;;;;;;;;5052880;28;20045;-76
2022/05/28 09:50:27;;;;;;;4.40;1.70;;;18.10;99.90;;;;;;5045864;28;20051;-77
2022/05/28 09:56:17;;;;;;;5.72;1.88;;;18.30;99.90;;;;;;5047698;28;20578;-77
2022/05/28 09:58:44;;;;;;;6.53;1.70;;;17.80;99.90;;;;;;5052465;28;20033;-79
2022/05/28 10:01:24;;;;;;;4.85;1.92;;;18.00;99.90;;;;;;5052303;28;20408;-79
2022/05/28 10:06:53;;;;;;;3.72;1.90;;;18.30;99.90;;;;;;5051437;28;20043;-77
2022/05/28 10:09:22;;;;;;;4.97;1.88;;;18.80;98.30;;;;;;5051814;28;20044;-80
2022/05/28 10:11:50;;;;;;;2.80;1.60;;;18.80;98.80;;;;;;5051197;28;20534;-80
2022/05/28 10:14:17;;;;;;;3.58;1.45;;;19.00;99.90;;;;;;5051746;28;20041;-78
2022/05/28 10:16:48;;;;;;;4.60;1.90;;;19.10;98.00;;;;;;5051444;28;20728;-77
2022/05/28 10:19:27;;;;;;;4.43;1.73;;;19.10;97.10;;;;;;5052844;28;20045;-77
2022/05/28 10:21:57;;;;;;;5.10;1.67;;;18.80;96.80;;;;;;5051462;28;20048;-76
2022/05/28 10:24:26;;;;;;;5.38;1.83;;;18.80;96.40;;;;;;5051498;28;20114;-77
2022/05/28 10:26:58;;;;;;;4.72;1.58;;;18.70;97.50;;;;;;5051413;28;20037;-75
2022/05/28 10:29:48;;;;;;;4.30;1.70;;;19.30;97.80;;;;;;5053165;28;20052;-75
2022/05/28 10:32:33;;;;;;;2.75;1.70;;;18.90;99.90;;;;;;5051691;28;20519;-77
2022/05/28 10:35:28;;;;;;;1.85;1.45;;;19.20;97.60;;;;;;5051236;28;20040;-76
2022/05/28 10:38:12;;;;;;;5.72;2.20;;;19.60;96.50;;;;;;5055420;28;20044;-76
2022/05/28 10:40:51;;;;;;;3.90;1.60;;;19.00;96.50;;;;;;5055512;28;20068;-76
2022/05/28 10:43:30;;;;;;;2.55;1.25;;;19.10;96.20;;;;;;5054734;28;20077;-78
2022/05/28 10:46:08;;;;;;;3.38;1.80;;;18.60;97.00;;;;;;5055481;28;20041;-79
2022/05/28 10:49:08;;;;;;;5.97;1.77;;;18.60;97.30;;;;;;5056205;28;20072;-76
2022/05/28 10:51:58;;;;;;;2.92;1.60;;;18.20;97.00;;;;;;5055253;28;20045;-75
2022/05/28 10:54:40;;;;;;;5.80;2.55;;;19.00;97.50;;;;;;5055159;28;20477;-76
2022/05/28 10:57:28;;;;;;;12.02;5.15;;;19.20;96.00;;;;;;5055261;28;20040;-78
2022/05/28 11:00:07;;;;;;;7.53;2.03;;;19.70;98.30;;;;;;5054961;28;20037;-78
2022/05/28 11:02:54;;;;;;;4.18;1.50;;;20.00;96.00;;;;;;5055033;28;20041;-75
2022/05/28 11:05:59;;;;;;;5.60;1.65;;;19.20;95.50;;;;;;5055117;28;20059;-75
2022/05/28 11:08:28;;;;;;;4.65;1.40;;;20.00;97.50;;;;;;5055587;28;20153;-77
2022/05/28 11:11:18;;;;;;;4.20;1.67;;;19.40;95.20;;;;;;5056548;28;20049;-77
2022/05/28 11:13:51;;;;;;;3.30;1.40;;;19.40;94.40;;;;;;5046436;28;20041;-78
2022/05/28 11:16:28;;;;;;;2.78;1.63;;;20.00;94.20;;;;;;5054651;28;20110;-78
2022/05/28 11:19:23;;;;;;;3.75;1.65;;;20.10;94.00;;;;;;5054561;28;20032;-80
2022/05/28 11:22:18;;;;;;;2.22;1.60;;;19.90;92.30;;;;;;5054080;28;20045;-79
2022/05/28 11:24:54;;;;;;;5.22;0.93;;;20.00;93.40;;;;;;5046142;28;20052;-78
2022/05/28 11:27:30;;;;;;;4.50;1.45;;;19.80;90.00;;;;;;5055870;28;20484;-79
2022/05/28 11:30:14;;;;;;;4.45;1.42;;;19.80;89.20;;;;;;5053851;28;20043;-77
2022/05/28 11:33:07;;;;;;;2.95;1.50;;;19.90;90.00;;;;;;5054338;28;20052;-76
2022/05/28 11:35:52;;;;;;;2.13;1.30;;;20.10;88.90;;;;;;5038176;28;20033;-78
2022/05/28 11:38:32;;;;;;;4.95;1.50;;;20.30;89.40;;;;;;5055179;28;20076;-75
2022/05/28 11:41:14;;;;;;;;;;;20.90;85.10;;;;;;5067302;28;20103;-77
2022/05/28 11:43:52;;;;;;;6.00;1.40;;;20.50;81.00;;;;;;5051960;28;19959;-77
2022/05/28 11:46:30;;;;;;;2.42;1.23;;;20.50;84.50;;;;;;5052364;28;20123;-78
2022/05/28 11:52:24;;;;;;;2.90;1.20;;;20.20;85.50;;;;;;5051085;28;20035;-75
2022/05/28 11:55:06;;;;;;;3.10;1.20;;;20.20;84.00;;;;;;5053235;28;20507;-76
2022/05/28 11:58:18;;;;;;;4.05;1.17;;;20.80;88.90;;;;;;5053731;28;20126;-76
2022/05/28 12:00:54;;;;;;;4.85;1.40;;;20.70;78.30;;;;;;5051143;28;20041;-78
2022/05/28 12:03:33;;;;;;;2.80;1.15;;;20.90;78.30;;;;;;5052325;28;20041;-76
2022/05/28 12:06:03;;;;;;;4.43;1.10;;;20.60;79.90;;;;;;5051131;28;20080;-75
2022/05/28 12:08:32;;;;;;;3.47;1.27;;;20.70;78.80;;;;;;5052126;28;20033;-76
2022/05/28 12:11:29;;;;;;;3.37;1.30;;;20.50;77.10;;;;;;5051612;28;20075;-75
2022/05/28 12:13:59;;;;;;;1.65;0.90;;;20.60;76.10;;;;;;5036568;28;20685;-76
2022/05/28 12:16:33;;;;;;;3.05;1.10;;;20.40;76.00;;;;;;5052532;28;20124;-76
2022/05/28 12:19:06;;;;;;;4.68;1.23;;;20.00;73.30;;;;;;5053516;28;20072;-76
2022/05/28 12:21:39;;;;;;;2.17;1.17;;;20.30;75.20;;;;;;5052535;28;20064;-76
2022/05/28 12:24:13;;;;;;;2.83;1.40;;;20.10;75.40;;;;;;5052678;28;20045;-77
2022/05/28 12:27:20;;;;;;;4.05;1.50;;;20.30;75.70;;;;;;5050504;28;20044;-77
2022/05/28 12:30:33;;;;;;;5.53;2.00;;;20.20;74.60;;;;;;5051846;28;20415;-76
2022/05/28 12:33:00;;;;;;;3.60;1.20;;;19.80;74.60;;;;;;5048385;28;20518;-77
2022/05/28 12:35:32;;;;;;;2.45;1.27;;;20.20;74.70;;;;;;5053387;28;20476;-76
2022/05/28 12:38:15;;;;;;;4.20;1.20;;;20.80;74.60;;;;;;5050134;28;20044;-77
2022/05/28 12:41:02;;;;;;;2.35;1.10;;;21.20;74.10;;;;;;5050864;28;20439;-77
2022/05/28 12:43:33;;;;;;;4.70;1.25;;;21.40;74.80;;;;;;5049716;28;20045;-77
2022/05/28 12:46:14;;;;;;;4.25;1.20;;;20.80;75.20;;;;;;5050947;28;20041;-75
2022/05/28 12:48:43;;;;;;;3.20;1.15;;;20.80;74.60;;;;;;5048071;28;20047;-75
2022/05/28 12:51:40;;;;;;;10.18;1.90;;;20.60;75.00;;;;;;5051966;28;20055;-76
2022/05/28 12:54:09;;;;;;;3.85;1.00;;;20.60;74.10;;;;;;5051109;28;20124;-77
2022/05/28 12:56:35;;;;;;;14.77;1.30;;;20.30;71.70;;;;;;5052590;28;20048;-76
2022/05/28 12:59:28;;;;;;;3.83;1.38;;;20.90;71.20;;;;;;5052363;28;20033;-78
2022/05/28 13:02:30;;;;;;;4.80;1.38;;;20.50;69.70;;;;;;5051609;28;20049;-77
2022/05/28 13:05:11;;;;;;;1.98;1.23;;;20.50;70.50;;;;;;5045421;28;20068;-75
2022/05/28 13:07:41;;;;;;;1.75;1.00;;;20.40;71.40;;;;;;5052454;28;20048;-75
2022/05/28 13:10:29;;;;;;;1.52;0.95;;;20.20;69.00;;;;;;5050871;28;20041;-75
2022/05/28 13:13:24;;;;;;;8.13;1.10;;;20.50;70.80;;;;;;5068167;28;20139;-76
2022/05/28 13:16:10;;;;;;;2.97;1.00;;;20.60;70.70;;;;;;5051262;28;20374;-75
2022/05/28 13:19:15;;;;;;;4.43;1.25;;;21.20;69.80;;;;;;5051565;28;20072;-76
2022/05/28 13:21:59;;;;;;;1.83;1.08;;;21.10;67.80;;;;;;5015324;28;20049;-75
2022/05/28 13:24:50;;;;;;;5.40;1.35;;;21.10;68.50;;;;;;5052078;28;20051;-76
2022/05/28 13:28:03;;;;;;;4.18;1.30;;;20.70;69.00;;;;;;5052034;28;20061;-77
2022/05/28 13:30:41;;;;;;;2.60;1.10;;;20.70;68.80;;;;;;4990720;28;20050;-77
2022/05/28 13:33:16;;;;;;;3.28;1.13;;;20.40;67.40;;;;;;4990418;28;20097;-77